sensor_id;sensor_type;location;lat;lon;timestamp;pressure;altitude;pressure_sealevel;temperature;humidity
71970;BME280;59838;52.152;5.436;2022-07-29T00:00:21;101934.25;;;15.21;68.53
71970;BME280;59838;52.152;5.436;2022-07-29T00:02:48;101933.78;;;15.17;68.96
71970;BME280;59838;52.152;5.436;2022-07-29T00:05:14;101935.72;;;15.09;69.44
71970;BME280;59838;52.152;5.436;2022-07-29T00:07:41;101928.84;;;15.08;69.35
71970;BME280;59838;52.152;5.436;2022-07-29T00:10:08;101920.41;;;15.06;69.43
71970;BME280;59838;52.152;5.436;2022-07-29T00:12:34;101919.22;;;15.08;69.41
71970;BME280;59838;52.152;5.436;2022-07-29T00:15:03;101918.41;;;15.08;69.57
71970;BME280;59838;52.152;5.436;2022-07-29T00:17:29;101918.16;;;15.03;69.25
71970;BME280;59838;52.152;5.436;2022-07-29T00:19:56;101918.16;;;15.03;69.75
71970;BME280;59838;52.152;5.436;2022-07-29T00:22:22;101917.28;;;14.95;70.19
71970;BME280;59838;52.152;5.436;2022-07-29T00:24:49;101912.97;;;14.88;70.33
71970;BME280;59838;52.152;5.436;2022-07-29T00:27:16;101913.50;;;14.83;70.56
71970;BME280;59838;52.152;5.436;2022-07-29T00:29:43;101904.69;;;14.84;70.71
71970;BME280;59838;52.152;5.436;2022-07-29T00:32:09;101905.72;;;14.90;70.07
71970;BME280;59838;52.152;5.436;2022-07-29T00:34:35;101903.94;;;14.90;70.33
71970;BME280;59838;52.152;5.436;2022-07-29T00:37:21;101894.03;;;14.86;70.63
71970;BME280;59838;52.152;5.436;2022-07-29T00:39:47;101896.09;;;14.75;71.22
71970;BME280;59838;52.152;5.436;2022-07-29T00:42:14;101885.13;;;14.65;71.55
71970;BME280;59838;52.152;5.436;2022-07-29T00:44:41;101887.13;;;14.63;71.72
71970;BME280;59838;52.152;5.436;2022-07-29T00:47:09;101895.97;;;14.62;71.85
71970;BME280;59838;52.152;5.436;2022-07-29T00:49:38;101884.94;;;14.67;71.87
71970;BME280;59838;52.152;5.436;2022-07-29T00:52:06;101879.28;;;14.63;71.65
71970;BME280;59838;52.152;5.436;2022-07-29T00:54:34;101881.06;;;14.62;72.06
71970;BME280;59838;52.152;5.436;2022-07-29T00:57:09;101882.78;;;14.55;72.09
71970;BME280;59838;52.152;5.436;2022-07-29T00:59:35;101879.53;;;14.53;72.15
71970;BME280;59838;52.152;5.436;2022-07-29T01:02:03;101878.34;;;14.56;71.98
71970;BME280;59838;52.152;5.436;2022-07-29T01:04:30;101877.38;;;14.57;72.05
71970;BME280;59838;52.152;5.436;2022-07-29T01:06:57;101878.00;;;14.59;71.76
71970;BME280;59838;52.152;5.436;2022-07-29T01:09:25;101882.88;;;14.62;71.67
71970;BME280;59838;52.152;5.436;2022-07-29T01:12:13;101877.03;;;14.60;71.63
71970;BME280;59838;52.152;5.436;2022-07-29T01:14:41;101870.44;;;14.64;71.21
71970;BME280;59838;52.152;5.436;2022-07-29T01:17:24;101870.81;;;14.61;71.46
71970;BME280;59838;52.152;5.436;2022-07-29T01:20:13;101861.78;;;14.63;70.98
71970;BME280;59838;52.152;5.436;2022-07-29T01:23:01;101865.38;;;14.62;70.93
71970;BME280;59838;52.152;5.436;2022-07-29T01:31:06;101861.28;;;14.38;72.25
71970;BME280;59838;52.152;5.436;2022-07-29T01:33:56;101863.78;;;14.32;72.34
71970;BME280;59838;52.152;5.436;2022-07-29T01:36:41;101862.97;;;14.31;72.28
71970;BME280;59838;52.152;5.436;2022-07-29T01:39:18;101857.50;;;14.26;72.53
71970;BME280;59838;52.152;5.436;2022-07-29T01:44:38;101860.13;;;14.11;73.15
71970;BME280;59838;52.152;5.436;2022-07-29T01:47:10;101865.97;;;14.13;72.89
71970;BME280;59838;52.152;5.436;2022-07-29T01:49:42;101866.16;;;14.12;73.07
71970;BME280;59838;52.152;5.436;2022-07-29T01:52:33;101859.94;;;14.13;72.64
71970;BME280;59838;52.152;5.436;2022-07-29T01:55:06;101869.56;;;14.12;72.97
71970;BME280;59838;52.152;5.436;2022-07-29T01:57:35;101868.41;;;14.15;72.76
71970;BME280;59838;52.152;5.436;2022-07-29T02:00:04;101869.72;;;14.11;73.11
71970;BME280;59838;52.152;5.436;2022-07-29T02:02:32;101870.66;;;14.03;73.26
71970;BME280;59838;52.152;5.436;2022-07-29T02:05:02;101865.53;;;13.95;73.66
71970;BME280;59838;52.152;5.436;2022-07-29T02:07:30;101870.25;;;13.91;73.81
71970;BME280;59838;52.152;5.436;2022-07-29T02:10:00;101868.66;;;13.90;73.78
71970;BME280;59838;52.152;5.436;2022-07-29T02:12:29;101873.72;;;13.92;73.62
71970;BME280;59838;52.152;5.436;2022-07-29T02:14:59;101863.53;;;13.97;73.82
71970;BME280;59838;52.152;5.436;2022-07-29T02:17:39;101864.34;;;13.97;73.93
71970;BME280;59838;52.152;5.436;2022-07-29T02:20:08;101865.78;;;14.00;74.05
71970;BME280;59838;52.152;5.436;2022-07-29T02:22:37;101870.19;;;13.99;73.92
71970;BME280;59838;52.152;5.436;2022-07-29T02:25:05;101864.59;;;14.02;73.87
71970;BME280;59838;52.152;5.436;2022-07-29T02:27:39;101865.59;;;14.01;74.12
71970;BME280;59838;52.152;5.436;2022-07-29T02:30:08;101854.69;;;13.98;74.59
71970;BME280;59838;52.152;5.436;2022-07-29T02:32:37;101857.50;;;13.96;74.83
71970;BME280;59838;52.152;5.436;2022-07-29T02:35:07;101859.03;;;13.90;74.88
71970;BME280;59838;52.152;5.436;2022-07-29T02:37:36;101851.53;;;13.87;75.12
71970;BME280;59838;52.152;5.436;2022-07-29T02:40:04;101862.34;;;13.84;75.19
71970;BME280;59838;52.152;5.436;2022-07-29T02:42:33;101857.94;;;13.85;74.90
71970;BME280;59838;52.152;5.436;2022-07-29T02:44:59;101853.34;;;13.87;74.66
71970;BME280;59838;52.152;5.436;2022-07-29T02:47:36;101849.19;;;13.93;74.09
71970;BME280;59838;52.152;5.436;2022-07-29T02:50:12;101852.72;;;14.00;73.61
71970;BME280;59838;52.152;5.436;2022-07-29T02:53:01;101844.16;;;14.06;73.11
71970;BME280;59838;52.152;5.436;2022-07-29T02:55:32;101841.34;;;14.07;73.30
71970;BME280;59838;52.152;5.436;2022-07-29T02:58:01;101850.38;;;14.05;73.40
71970;BME280;59838;52.152;5.436;2022-07-29T03:00:30;101846.97;;;14.04;73.26
71970;BME280;59838;52.152;5.436;2022-07-29T03:03:00;101844.34;;;14.04;73.21
71970;BME280;59838;52.152;5.436;2022-07-29T03:05:30;101850.38;;;14.05;73.75
71970;BME280;59838;52.152;5.436;2022-07-29T03:08:00;101850.91;;;14.00;73.75
71970;BME280;59838;52.152;5.436;2022-07-29T03:10:27;101849.09;;;14.01;73.82
71970;BME280;59838;52.152;5.436;2022-07-29T03:12:55;101850.66;;;13.95;74.10
71970;BME280;59838;52.152;5.436;2022-07-29T03:15:24;101846.59;;;13.93;74.29
71970;BME280;59838;52.152;5.436;2022-07-29T03:17:52;101840.56;;;13.92;74.26
71970;BME280;59838;52.152;5.436;2022-07-29T03:20:19;101837.59;;;13.95;73.62
71970;BME280;59838;52.152;5.436;2022-07-29T03:22:45;101840.19;;;13.95;74.04
71970;BME280;59838;52.152;5.436;2022-07-29T03:25:16;101841.19;;;13.94;74.19
71970;BME280;59838;52.152;5.436;2022-07-29T03:27:43;101834.78;;;13.97;73.73
71970;BME280;59838;52.152;5.436;2022-07-29T03:30:11;101835.25;;;14.00;73.73
71970;BME280;59838;52.152;5.436;2022-07-29T03:32:47;101828.69;;;14.04;73.31
71970;BME280;59838;52.152;5.436;2022-07-29T03:35:14;101824.25;;;14.05;73.25
71970;BME280;59838;52.152;5.436;2022-07-29T03:37:43;101826.69;;;14.06;73.10
71970;BME280;59838;52.152;5.436;2022-07-29T03:40:13;101829.47;;;14.05;73.57
71970;BME280;59838;52.152;5.436;2022-07-29T03:42:41;101822.63;;;14.04;73.53
71970;BME280;59838;52.152;5.436;2022-07-29T03:45:11;101823.44;;;14.04;73.67
71970;BME280;59838;52.152;5.436;2022-07-29T03:47:43;101820.19;;;14.02;73.63
71970;BME280;59838;52.152;5.436;2022-07-29T03:50:17;101815.13;;;14.01;73.82
71970;BME280;59838;52.152;5.436;2022-07-29T03:52:46;101812.09;;;13.97;73.93
71970;BME280;59838;52.152;5.436;2022-07-29T03:55:14;101807.88;;;13.96;74.11
71970;BME280;59838;52.152;5.436;2022-07-29T03:57:42;101809.47;;;13.97;73.98
71970;BME280;59838;52.152;5.436;2022-07-29T04:00:09;101805.03;;;13.98;74.45
71970;BME280;59838;52.152;5.436;2022-07-29T04:02:37;101811.28;;;13.97;74.29
71970;BME280;59838;52.152;5.436;2022-07-29T04:05:04;101804.88;;;13.99;74.41
71970;BME280;59838;52.152;5.436;2022-07-29T04:07:31;101807.47;;;13.99;74.38
71970;BME280;59838;52.152;5.436;2022-07-29T04:09:57;101813.34;;;14.01;74.47
71970;BME280;59838;52.152;5.436;2022-07-29T04:12:24;101813.72;;;13.98;74.59
71970;BME280;59838;52.152;5.436;2022-07-29T04:14:51;101808.50;;;13.98;74.49
71970;BME280;59838;52.152;5.436;2022-07-29T04:17:17;101806.84;;;13.97;74.68
71970;BME280;59838;52.152;5.436;2022-07-29T04:19:43;101806.84;;;13.97;74.75
71970;BME280;59838;52.152;5.436;2022-07-29T04:22:10;101811.91;;;13.99;74.78
71970;BME280;59838;52.152;5.436;2022-07-29T04:24:40;101815.50;;;13.98;74.64
71970;BME280;59838;52.152;5.436;2022-07-29T04:27:09;101814.50;;;13.99;74.47
71970;BME280;59838;52.152;5.436;2022-07-29T04:29:38;101808.75;;;14.03;74.32
71970;BME280;59838;52.152;5.436;2022-07-29T04:32:23;101805.53;;;14.01;74.60
71970;BME280;59838;52.152;5.436;2022-07-29T04:34:50;101812.09;;;13.97;74.96
71970;BME280;59838;52.152;5.436;2022-07-29T04:37:16;101811.09;;;13.98;74.46
71970;BME280;59838;52.152;5.436;2022-07-29T04:39:43;101810.09;;;13.99;74.76
71970;BME280;59838;52.152;5.436;2022-07-29T04:42:09;101810.09;;;13.99;74.68
71970;BME280;59838;52.152;5.436;2022-07-29T04:44:36;101807.31;;;14.01;74.53
71970;BME280;59838;52.152;5.436;2022-07-29T04:47:07;101809.56;;;14.04;74.36
71970;BME280;59838;52.152;5.436;2022-07-29T04:49:34;101812.72;;;13.99;74.58
71970;BME280;59838;52.152;5.436;2022-07-29T04:52:00;101813.09;;;13.96;74.99
71970;BME280;59838;52.152;5.436;2022-07-29T04:54:30;101810.28;;;13.98;74.57
71970;BME280;59838;52.152;5.436;2022-07-29T04:56:56;101813.09;;;13.96;75.23
71970;BME280;59838;52.152;5.436;2022-07-29T04:59:23;101810.47;;;13.96;75.07
71970;BME280;59838;52.152;5.436;2022-07-29T05:01:51;101812.72;;;13.99;74.70
71970;BME280;59838;52.152;5.436;2022-07-29T05:04:17;101821.63;;;14.05;74.08
71970;BME280;59838;52.152;5.436;2022-07-29T05:06:45;101822.25;;;14.07;74.36
71970;BME280;59838;52.152;5.436;2022-07-29T05:09:11;101814.59;;;14.05;74.38
71970;BME280;59838;52.152;5.436;2022-07-29T05:11:38;101809.19;;;14.07;74.12
71970;BME280;59838;52.152;5.436;2022-07-29T05:14:04;101815.22;;;14.07;74.53
71970;BME280;59838;52.152;5.436;2022-07-29T05:16:34;101814.25;;;14.08;74.60
71970;BME280;59838;52.152;5.436;2022-07-29T05:19:01;101815.88;;;14.10;74.31
71970;BME280;59838;52.152;5.436;2022-07-29T05:21:27;101816.50;;;14.12;74.32
71970;BME280;59838;52.152;5.436;2022-07-29T05:23:54;101811.25;;;14.12;74.40
71970;BME280;59838;52.152;5.436;2022-07-29T05:26:20;101814.50;;;14.14;74.37
71970;BME280;59838;52.152;5.436;2022-07-29T05:28:46;101811.88;;;14.14;74.45
71970;BME280;59838;52.152;5.436;2022-07-29T05:31:14;101822.59;;;14.19;74.17
71970;BME280;59838;52.152;5.436;2022-07-29T05:33:41;101828.47;;;14.21;74.10
71970;BME280;59838;52.152;5.436;2022-07-29T05:36:08;101831.53;;;14.24;74.27
71970;BME280;59838;52.152;5.436;2022-07-29T05:38:35;101839.28;;;14.33;74.20
71970;BME280;59838;52.152;5.436;2022-07-29T05:41:02;101835.94;;;14.39;74.09
71970;BME280;59838;52.152;5.436;2022-07-29T05:43:29;101836.00;;;14.45;73.64
71970;BME280;59838;52.152;5.436;2022-07-29T05:45:56;101838.50;;;14.54;73.50
71970;BME280;59838;52.152;5.436;2022-07-29T05:48:23;101838.06;;;14.65;72.61
71970;BME280;59838;52.152;5.436;2022-07-29T05:50:50;101835.16;;;14.75;72.77
71970;BME280;59838;52.152;5.436;2022-07-29T05:53:16;101835.91;;;14.90;72.38
71970;BME280;59838;52.152;5.436;2022-07-29T05:55:46;101837.38;;;14.99;72.63
71970;BME280;59838;52.152;5.436;2022-07-29T05:58:12;101836.28;;;15.09;72.04
71970;BME280;59838;52.152;5.436;2022-07-29T06:00:39;101840.44;;;15.25;70.81
71970;BME280;59838;52.152;5.436;2022-07-29T06:03:06;101849.97;;;15.61;70.97
71970;BME280;59838;52.152;5.436;2022-07-29T06:05:32;101844.63;;;16.04;69.72
71970;BME280;59838;52.152;5.436;2022-07-29T06:07:59;101843.53;;;17.08;66.36
71970;BME280;59838;52.152;5.436;2022-07-29T06:10:25;101824.66;;;17.85;63.81
71970;BME280;59838;52.152;5.436;2022-07-29T06:12:53;101830.72;;;18.51;60.78
71970;BME280;59838;52.152;5.436;2022-07-29T06:15:19;101837.69;;;18.70;58.86
71970;BME280;59838;52.152;5.436;2022-07-29T06:17:46;101839.91;;;17.63;62.14
71970;BME280;59838;52.152;5.436;2022-07-29T06:20:30;101842.34;;;17.31;62.64
71970;BME280;59838;52.152;5.436;2022-07-29T06:22:58;101845.16;;;17.03;64.05
71970;BME280;59838;52.152;5.436;2022-07-29T06:25:25;101846.56;;;17.59;62.46
71970;BME280;59838;52.152;5.436;2022-07-29T06:27:52;101865.19;;;17.30;63.40
71970;BME280;59838;52.152;5.436;2022-07-29T06:30:18;101871.44;;;17.09;63.88
71970;BME280;59838;52.152;5.436;2022-07-29T06:32:45;101876.06;;;17.07;64.20
71970;BME280;59838;52.152;5.436;2022-07-29T06:35:11;101876.22;;;16.92;64.47
71970;BME280;59838;52.152;5.436;2022-07-29T06:37:58;101876.78;;;16.74;65.75
71970;BME280;59838;52.152;5.436;2022-07-29T06:40:25;101877.75;;;16.67;65.69
71970;BME280;59838;52.152;5.436;2022-07-29T06:43:10;101875.09;;;16.60;65.74
71970;BME280;59838;52.152;5.436;2022-07-29T06:45:37;101867.69;;;16.77;66.42
71970;BME280;59838;52.152;5.436;2022-07-29T06:48:08;101869.03;;;17.48;64.55
71970;BME280;59838;52.152;5.436;2022-07-29T06:50:34;101861.66;;;18.55;61.98
71970;BME280;59838;52.152;5.436;2022-07-29T06:53:00;101853.56;;;19.64;59.32
71970;BME280;59838;52.152;5.436;2022-07-29T06:55:27;101863.22;;;20.14;55.56
71970;BME280;59838;52.152;5.436;2022-07-29T06:57:53;101871.38;;;19.69;56.28
71970;BME280;59838;52.152;5.436;2022-07-29T07:00:20;101870.78;;;19.67;55.64
71970;BME280;59838;52.152;5.436;2022-07-29T07:02:46;101874.25;;;19.42;56.93
71970;BME280;59838;52.152;5.436;2022-07-29T07:05:15;101862.94;;;20.04;55.81
71970;BME280;59838;52.152;5.436;2022-07-29T07:07:42;101863.00;;;20.64;54.66
71970;BME280;59838;52.152;5.436;2022-07-29T07:10:08;101869.06;;;21.07;52.03
71970;BME280;59838;52.152;5.436;2022-07-29T07:12:35;101869.28;;;20.63;53.73
71970;BME280;59838;52.152;5.436;2022-07-29T07:15:01;101872.91;;;20.51;54.57
71970;BME280;59838;52.152;5.436;2022-07-29T07:17:29;101871.16;;;21.41;52.21
71970;BME280;59838;52.152;5.436;2022-07-29T07:19:55;101881.50;;;22.01;51.64
71970;BME280;59838;52.152;5.436;2022-07-29T07:22:22;101868.59;;;22.74;49.01
71970;BME280;59838;52.152;5.436;2022-07-29T07:24:52;101869.09;;;23.05;47.11
71970;BME280;59838;52.152;5.436;2022-07-29T07:27:18;101869.47;;;22.80;48.77
71970;BME280;59838;52.152;5.436;2022-07-29T07:29:45;101872.63;;;23.84;45.07
71970;BME280;59838;52.152;5.436;2022-07-29T07:32:11;101864.03;;;23.60;45.76
71970;BME280;59838;52.152;5.436;2022-07-29T07:34:39;101863.19;;;23.76;46.45
71970;BME280;59838;52.152;5.436;2022-07-29T07:37:06;101864.28;;;24.19;44.61
71970;BME280;59838;52.152;5.436;2022-07-29T07:39:32;101855.47;;;23.91;44.70
71970;BME280;59838;52.152;5.436;2022-07-29T07:41:59;101862.00;;;23.45;46.47
71970;BME280;59838;52.152;5.436;2022-07-29T07:44:25;101851.69;;;23.48;46.62
71970;BME280;59838;52.152;5.436;2022-07-29T07:46:52;101848.06;;;23.94;44.59
71970;BME280;59838;52.152;5.436;2022-07-29T07:49:20;101842.09;;;23.64;46.19
71970;BME280;59838;52.152;5.436;2022-07-29T07:51:46;101841.13;;;23.31;46.47
71970;BME280;59838;52.152;5.436;2022-07-29T07:54:16;101849.88;;;23.32;47.94
71970;BME280;59838;52.152;5.436;2022-07-29T07:56:43;101842.97;;;24.14;46.27
71970;BME280;59838;52.152;5.436;2022-07-29T07:59:10;101845.59;;;23.87;47.54
71970;BME280;59838;52.152;5.436;2022-07-29T08:01:36;101841.31;;;23.08;46.42
71970;BME280;59838;52.152;5.436;2022-07-29T08:04:22;101843.63;;;22.41;48.61
71970;BME280;59838;52.152;5.436;2022-07-29T08:06:54;101842.31;;;22.15;49.92
71970;BME280;59838;52.152;5.436;2022-07-29T08:09:21;101840.41;;;22.68;50.08
71970;BME280;59838;52.152;5.436;2022-07-29T08:11:56;101841.03;;;22.75;48.24
71970;BME280;59838;52.152;5.436;2022-07-29T08:14:22;101834.66;;;22.42;49.23
71970;BME280;59838;52.152;5.436;2022-07-29T08:16:49;101836.16;;;22.09;50.42
71970;BME280;59838;52.152;5.436;2022-07-29T08:19:16;101835.28;;;22.50;49.74
71970;BME280;59838;52.152;5.436;2022-07-29T08:21:42;101840.88;;;22.65;50.49
71970;BME280;59838;52.152;5.436;2022-07-29T08:24:08;101842.03;;;22.28;51.24
71970;BME280;59838;52.152;5.436;2022-07-29T08:26:53;101839.28;;;22.35;51.37
71970;BME280;59838;52.152;5.436;2022-07-29T08:29:20;101839.63;;;22.27;49.73
71970;BME280;59838;52.152;5.436;2022-07-29T08:31:46;101840.09;;;21.83;51.67
71970;BME280;59838;52.152;5.436;2022-07-29T08:34:13;101836.19;;;21.86;50.93
71970;BME280;59838;52.152;5.436;2022-07-29T08:36:40;101845.75;;;22.16;51.96
71970;BME280;59838;52.152;5.436;2022-07-29T08:39:06;101842.22;;;22.51;50.81
71970;BME280;59838;52.152;5.436;2022-07-29T08:41:33;101844.78;;;22.62;50.53
71970;BME280;59838;52.152;5.436;2022-07-29T08:43:59;101841.44;;;22.67;50.37
71970;BME280;59838;52.152;5.436;2022-07-29T08:46:26;101846.41;;;23.48;48.41
71970;BME280;59838;52.152;5.436;2022-07-29T08:48:53;101847.16;;;24.10;47.73
71970;BME280;59838;52.152;5.436;2022-07-29T08:51:21;101846.16;;;24.38;45.86
71970;BME280;59838;52.152;5.436;2022-07-29T08:53:49;101849.88;;;24.42;45.11
71970;BME280;59838;52.152;5.436;2022-07-29T08:56:17;101845.91;;;24.40;46.00
71970;BME280;59838;52.152;5.436;2022-07-29T08:58:48;101854.28;;;24.26;47.04
71970;BME280;59838;52.152;5.436;2022-07-29T09:01:22;101848.03;;;23.71;46.23
71970;BME280;59838;52.152;5.436;2022-07-29T09:04:03;101848.78;;;23.28;48.16
71970;BME280;59838;52.152;5.436;2022-07-29T09:06:32;101856.63;;;23.06;50.22
71970;BME280;59838;52.152;5.436;2022-07-29T09:09:00;101849.81;;;22.93;49.66
71970;BME280;59838;52.152;5.436;2022-07-29T09:11:28;101840.34;;;23.14;48.75
71970;BME280;59838;52.152;5.436;2022-07-29T09:13:55;101846.41;;;23.48;46.95
71970;BME280;59838;52.152;5.436;2022-07-29T09:16:21;101849.47;;;23.40;49.16
71970;BME280;59838;52.152;5.436;2022-07-29T09:19:19;101838.78;;;23.35;51.56
71970;BME280;59838;52.152;5.436;2022-07-29T09:21:46;101850.59;;;23.66;49.56
71970;BME280;59838;52.152;5.436;2022-07-29T09:24:44;101848.19;;;23.43;48.20
71970;BME280;59838;52.152;5.436;2022-07-29T09:29:43;101856.28;;;22.68;50.37
71970;BME280;59838;52.152;5.436;2022-07-29T09:32:10;101853.53;;;23.09;49.35
71970;BME280;59838;52.152;5.436;2022-07-29T09:34:37;101850.84;;;23.65;47.23
71970;BME280;59838;52.152;5.436;2022-07-29T09:37:04;101863.06;;;23.83;46.15
71970;BME280;59838;52.152;5.436;2022-07-29T09:39:36;101856.66;;;24.01;45.35
71970;BME280;59838;52.152;5.436;2022-07-29T09:42:05;101854.97;;;24.44;42.66
71970;BME280;59838;52.152;5.436;2022-07-29T09:44:48;101855.03;;;24.49;44.11
71970;BME280;59838;52.152;5.436;2022-07-29T09:47:16;101850.94;;;23.92;43.42
71970;BME280;59838;52.152;5.436;2022-07-29T09:49:57;101845.88;;;23.12;46.44
71970;BME280;59838;52.152;5.436;2022-07-29T09:52:27;101845.88;;;22.95;46.82
71970;BME280;59838;52.152;5.436;2022-07-29T09:55:07;101846.81;;;23.06;46.38
71970;BME280;59838;52.152;5.436;2022-07-29T09:57:34;101839.56;;;22.68;48.80
71970;BME280;59838;52.152;5.436;2022-07-29T10:00:08;101838.25;;;22.36;49.19
71970;BME280;59838;52.152;5.436;2022-07-29T10:02:37;101841.16;;;22.23;49.85
71970;BME280;59838;52.152;5.436;2022-07-29T10:05:06;101846.66;;;22.33;50.50
71970;BME280;59838;52.152;5.436;2022-07-29T10:07:52;101847.47;;;22.34;50.00
71970;BME280;59838;52.152;5.436;2022-07-29T10:10:31;101841.94;;;22.23;50.59
71970;BME280;59838;52.152;5.436;2022-07-29T10:12:59;101847.28;;;22.12;49.90
71970;BME280;59838;52.152;5.436;2022-07-29T10:15:36;101848.31;;;22.10;50.44
71970;BME280;59838;52.152;5.436;2022-07-29T10:18:05;101845.03;;;22.61;50.36
71970;BME280;59838;52.152;5.436;2022-07-29T10:20:32;101853.34;;;22.98;49.54
71970;BME280;59838;52.152;5.436;2022-07-29T10:22:58;101849.88;;;23.49;46.80
71970;BME280;59838;52.152;5.436;2022-07-29T10:25:26;101847.22;;;23.71;47.33
71970;BME280;59838;52.152;5.436;2022-07-29T10:27:53;101843.28;;;23.73;46.97
71970;BME280;59838;52.152;5.436;2022-07-29T10:30:22;101855.84;;;23.39;46.86
71970;BME280;59838;52.152;5.436;2022-07-29T10:33:18;101848.59;;;23.34;48.53
71970;BME280;59838;52.152;5.436;2022-07-29T10:38:45;101842.53;;;24.22;47.16
71970;BME280;59838;52.152;5.436;2022-07-29T10:41:34;101850.50;;;24.50;46.67
71970;BME280;59838;52.152;5.436;2022-07-29T10:44:16;101844.06;;;24.45;45.80
71970;BME280;59838;52.152;5.436;2022-07-29T10:46:48;101846.91;;;24.34;46.92
71970;BME280;59838;52.152;5.436;2022-07-29T10:49:19;101846.97;;;23.89;46.99
71970;BME280;59838;52.152;5.436;2022-07-29T10:59:47;101833.97;;;24.70;48.61
71970;BME280;59838;52.152;5.436;2022-07-29T11:05:13;101842.63;;;24.87;46.76
71970;BME280;59838;52.152;5.436;2022-07-29T11:10:49;101832.75;;;24.82;47.71
71970;BME280;59838;52.152;5.436;2022-07-29T11:13:45;101840.03;;;24.97;46.53
71970;BME280;59838;52.152;5.436;2022-07-29T11:16:14;101831.84;;;24.72;44.03
71970;BME280;59838;52.152;5.436;2022-07-29T11:21:38;101837.28;;;24.27;47.28
71970;BME280;59838;52.152;5.436;2022-07-29T11:24:27;101839.06;;;24.76;48.01
71970;BME280;59838;52.152;5.436;2022-07-29T11:29:55;101833.97;;;24.70;45.81
71970;BME280;59838;52.152;5.436;2022-07-29T11:32:25;101832.53;;;24.57;46.91
71970;BME280;59838;52.152;5.436;2022-07-29T11:35:21;101836.72;;;24.25;45.06
71970;BME280;59838;52.152;5.436;2022-07-29T11:41:27;101841.19;;;24.74;45.42
71970;BME280;59838;52.152;5.436;2022-07-29T11:43:59;101839.28;;;24.42;45.17
71970;BME280;59838;52.152;5.436;2022-07-29T11:46:51;101835.69;;;24.26;45.00
71970;BME280;59838;52.152;5.436;2022-07-29T11:49:21;101833.56;;;24.28;45.38
71970;BME280;59838;52.152;5.436;2022-07-29T11:51:58;101836.06;;;24.13;46.23
71970;BME280;59838;52.152;5.436;2022-07-29T11:54:33;101834.03;;;24.20;46.90
71970;BME280;59838;52.152;5.436;2022-07-29T11:57:20;101833.06;;;24.32;45.40
71970;BME280;59838;52.152;5.436;2022-07-29T11:59:47;101839.38;;;24.25;45.72
71970;BME280;59838;52.152;5.436;2022-07-29T12:02:14;101835.13;;;24.24;47.14
71970;BME280;59838;52.152;5.436;2022-07-29T12:05:02;101832.72;;;24.50;45.57
71970;BME280;59838;52.152;5.436;2022-07-29T12:07:48;101827.00;;;24.63;48.09
71970;BME280;59838;52.152;5.436;2022-07-29T12:10:15;101838.19;;;24.66;45.28
71970;BME280;59838;52.152;5.436;2022-07-29T12:12:55;101831.94;;;24.55;45.04
71970;BME280;59838;52.152;5.436;2022-07-29T12:15:22;101838.13;;;24.60;46.42
71970;BME280;59838;52.152;5.436;2022-07-29T12:20:44;101832.16;;;24.75;45.46
71970;BME280;59838;52.152;5.436;2022-07-29T12:23:12;101836.81;;;24.95;45.00
71970;BME280;59838;52.152;5.436;2022-07-29T12:25:43;101840.22;;;24.86;45.15
71970;BME280;59838;52.152;5.436;2022-07-29T12:28:15;101830.13;;;24.88;43.48
71970;BME280;59838;52.152;5.436;2022-07-29T12:30:52;101838.97;;;24.98;46.38
71970;BME280;59838;52.152;5.436;2022-07-29T12:35:54;101830.88;;;24.83;44.53
71970;BME280;59838;52.152;5.436;2022-07-29T12:38:33;101840.91;;;25.08;46.01
71970;BME280;59838;52.152;5.436;2022-07-29T12:41:01;101844.03;;;25.38;42.85
71970;BME280;59838;52.152;5.436;2022-07-29T12:43:30;101840.31;;;25.39;43.84
71970;BME280;59838;52.152;5.436;2022-07-29T12:45:57;101839.81;;;26.00;42.86
71970;BME280;59838;52.152;5.436;2022-07-29T12:48:37;101833.03;;;25.82;42.22
71970;BME280;59838;52.152;5.436;2022-07-29T12:51:06;101836.34;;;26.04;42.55
71970;BME280;59838;52.152;5.436;2022-07-29T12:53:34;101827.59;;;26.19;42.90
71970;BME280;59838;52.152;5.436;2022-07-29T12:56:03;101831.19;;;25.77;42.43
71970;BME280;59838;52.152;5.436;2022-07-29T12:58:46;101837.78;;;25.64;43.67
71970;BME280;59838;52.152;5.436;2022-07-29T13:01:17;101825.03;;;25.71;42.56
71970;BME280;59838;52.152;5.436;2022-07-29T13:03:53;101828.47;;;25.72;43.90
71970;BME280;59838;52.152;5.436;2022-07-29T13:09:12;101832.50;;;25.75;42.34
71970;BME280;59838;52.152;5.436;2022-07-29T13:11:44;101836.22;;;25.79;41.53
71970;BME280;59838;52.152;5.436;2022-07-29T13:14:32;101821.38;;;25.93;43.43
71970;BME280;59838;52.152;5.436;2022-07-29T13:17:07;101825.44;;;26.06;43.53
71970;BME280;59838;52.152;5.436;2022-07-29T13:22:04;101821.84;;;25.75;43.05
71970;BME280;59838;52.152;5.436;2022-07-29T13:24:30;101820.41;;;26.25;41.94
71970;BME280;59838;52.152;5.436;2022-07-29T13:26:57;101828.56;;;25.92;43.21
71970;BME280;59838;52.152;5.436;2022-07-29T13:29:23;101818.78;;;26.03;46.18
71970;BME280;59838;52.152;5.436;2022-07-29T13:31:55;101822.91;;;25.79;44.84
71970;BME280;59838;52.152;5.436;2022-07-29T13:34:22;101822.53;;;25.49;44.26
71970;BME280;59838;52.152;5.436;2022-07-29T13:36:50;101819.44;;;25.73;45.49
71970;BME280;59838;52.152;5.436;2022-07-29T13:39:17;101824.28;;;25.81;43.63
71970;BME280;59838;52.152;5.436;2022-07-29T13:41:43;101823.22;;;25.82;43.64
71970;BME280;59838;52.152;5.436;2022-07-29T13:44:10;101820.28;;;25.84;45.87
71970;BME280;59838;52.152;5.436;2022-07-29T13:46:37;101816.03;;;25.88;44.30
71970;BME280;59838;52.152;5.436;2022-07-29T13:49:05;101815.38;;;26.49;43.49
71970;BME280;59838;52.152;5.436;2022-07-29T13:51:31;101815.88;;;26.56;43.53
71970;BME280;59838;52.152;5.436;2022-07-29T13:53:58;101817.78;;;26.87;40.73